Time;durP1;ratioP1;P1;durP2;ratioP2;P2;SDS_P1;SDS_P2;PMS_P1;PMS_P2;Temp;Humidity;BMP_temperature;BMP_pressure;BME280_temperature;BME280_humidity;BME280_pressure;Samples;Min_cycle;Max_cycle;Signal;HPM_P1;HPM_P2
2022/12/06 00:00:40;;;;;;;;;;;;;;;5.14;100.00;102018.84;5088332;28;19944;-64
2022/12/06 00:03:05;;;;;;;;;;;;;;;5.14;100.00;102013.59;5088325;28;19912;-63
2022/12/06 00:05:30;;;;;;;;;;;;;;;5.14;100.00;102014.44;5083380;28;19924;-64
2022/12/06 00:07:56;;;;;;;;;;;;;;;5.14;100.00;102022.31;5088174;28;19912;-63
2022/12/06 00:10:21;;;;;;;;;;;;;;;5.13;100.00;102011.91;5082238;28;19958;-63
2022/12/06 00:12:46;;;;;;;;;;;;;;;5.14;100.00;102003.91;5085467;28;19912;-63
2022/12/06 00:15:11;;;;;;;;;;;;;;;5.14;100.00;102013.59;5085815;28;20380;-62
2022/12/06 00:17:37;;;;;;;;;;;;;;;5.15;100.00;102008.22;5089296;28;19965;-64
2022/12/06 00:20:02;;;;;;;;;;;;;;;5.14;100.00;102003.91;5079886;28;19924;-63
2022/12/06 00:22:27;;;;;;;;;;;;;;;5.15;100.00;102008.22;5088735;28;20328;-64
2022/12/06 00:24:52;;;;;;;;;;;;;;;5.15;100.00;102008.22;5079486;28;19920;-62
2022/12/06 00:27:17;;;;;;;;;;;;;;;5.17;100.00;102008.94;5084098;28;19959;-63
2022/12/06 00:29:42;;;;;;;;;;;;;;;5.18;99.93;102009.78;5085738;28;19916;-63
2022/12/06 00:32:08;;;;;;;;;;;;;;;5.16;99.96;102006.41;5081655;28;19971;-63
2022/12/06 00:34:33;;;;;;;;;;;;;;;5.16;100.00;102007.25;5079831;28;19945;-63
2022/12/06 00:36:58;;;;;;;;;;;;;;;5.17;100.00;102019.47;5088047;28;19934;-63
2022/12/06 00:39:23;;;;;;;;;;;;;;;5.18;100.00;102015.91;5084183;28;19920;-63
2022/12/06 00:41:48;;;;;;;;;;;;;;;5.18;100.00;102008.00;5083582;28;19923;-63
2022/12/06 00:44:13;;;;;;;;;;;;;;;5.19;100.00;102001.78;5082955;28;19924;-63
2022/12/06 00:46:39;;;;;;;;;;;;;;;5.20;100.00;102002.63;5080235;28;20327;-63
2022/12/06 00:49:05;;;;;;;;;;;;;;;5.20;100.00;102002.63;5087349;28;20401;-63
2022/12/06 00:51:31;;;;;;;;;;;;;;;5.19;100.00;102006.22;5084357;28;19916;-63
2022/12/06 00:53:57;;;;;;;;;;;;;;;5.19;100.00;102006.22;5085580;28;19916;-63
2022/12/06 00:56:22;;;;;;;;;;;;;;;5.20;100.00;102010.53;5081643;28;19916;-63
2022/12/06 00:58:48;;;;;;;;;;;;;;;5.20;100.00;102005.25;5079820;28;19965;-63
2022/12/06 01:01:14;;;;;;;;;;;;;;;5.20;100.00;102008.75;5085815;28;19924;-63
2022/12/06 01:03:40;;;;;;;;;;;;;;;5.20;100.00;102008.75;5088970;28;20731;-63
2022/12/06 01:06:06;;;;;;;;;;;;;;;5.20;99.98;102008.75;5085819;28;20007;-63
2022/12/06 01:08:32;;;;;;;;;;;;;;;5.21;100.00;102013.06;5086283;28;19916;-63
2022/12/06 01:10:57;;;;;;;;;;;;;;;5.21;100.00;102018.34;5083400;28;19920;-63
2022/12/06 01:13:22;;;;;;;;;;;;;;;5.21;100.00;102017.50;5088110;28;19923;-63
2022/12/06 01:15:48;;;;;;;;;;;;;;;5.19;100.00;102012.31;5087289;28;20003;-63
2022/12/06 01:18:13;;;;;;;;;;;;;;;5.19;100.00;102014.09;5085374;28;19920;-63
2022/12/06 01:20:38;;;;;;;;;;;;;;;5.18;100.00;102012.41;5082646;28;19916;-63
2022/12/06 01:23:03;;;;;;;;;;;;;;;5.18;100.00;102015.06;5088722;28;19916;-62
2022/12/06 01:25:29;;;;;;;;;;;;;;;5.18;100.00;102015.06;5092511;28;19931;-63
2022/12/06 01:27:55;;;;;;;;;;;;;;;5.17;100.00;102010.75;5087928;28;19924;-63
2022/12/06 01:30:20;;;;;;;;;;;;;;;5.15;100.00;102000.31;5082051;28;19917;-63
2022/12/06 01:32:45;;;;;;;;;;;;;;;5.15;100.00;102012.63;5087803;28;19916;-64
2022/12/06 01:35:10;;;;;;;;;;;;;;;5.14;100.00;102011.78;5082844;28;19998;-63
2022/12/06 01:37:35;;;;;;;;;;;;;;;5.15;100.00;102010.00;5079687;28;19923;-63
2022/12/06 01:40:00;;;;;;;;;;;;;;;5.14;100.00;102016.22;5087109;28;20395;-63
2022/12/06 01:42:26;;;;;;;;;;;;;;;5.14;100.00;102014.44;5085186;28;19942;-63
2022/12/06 01:44:52;;;;;;;;;;;;;;;5.15;100.00;102015.28;5086370;28;19931;-63
2022/12/06 01:47:28;;;;;;;;;;;;;;;5.15;100.00;102010.84;5089430;28;19924;-63
2022/12/06 01:49:57;;;;;;;;;;;;;;;5.16;100.00;102017.78;5089660;28;19916;-63
2022/12/06 01:52:25;;;;;;;;;;;;;;;5.17;100.00;102011.56;5086101;28;19916;-63
2022/12/06 01:54:51;;;;;;;;;;;;;;;5.16;100.00;102016.94;5082359;28;19995;-63
2022/12/06 01:57:16;;;;;;;;;;;;;;;5.14;100.00;102011.78;5089702;28;19920;-63
2022/12/06 01:59:42;;;;;;;;;;;;;;;5.14;100.00;102003.91;5086888;28;19981;-63
2022/12/06 02:02:07;;;;;;;;;;;;;;;5.14;100.00;102009.16;5092609;28;20010;-63
2022/12/06 02:04:33;;;;;;;;;;;;;;;5.13;100.00;102004.84;5086917;28;19921;-63
2022/12/06 02:06:59;;;;;;;;;;;;;;;5.14;100.00;102001.25;5084530;28;19920;-63
2022/12/06 02:09:25;;;;;;;;;;;;;;;5.14;100.00;102006.53;5088347;28;19973;-63
2022/12/06 02:11:50;;;;;;;;;;;;;;;5.15;100.00;102004.75;5089170;28;19940;-63
2022/12/06 02:14:18;;;;;;;;;;;;;;;5.15;100.00;102004.75;5087784;28;19920;-63
2022/12/06 02:16:46;;;;;;;;;;;;;;;5.13;100.00;101999.59;5087674;28;19978;-63
2022/12/06 02:19:18;;;;;;;;;;;;;;;5.12;100.00;102004.97;5085130;28;19969;-63
2022/12/06 02:21:49;;;;;;;;;;;;;;;5.10;100.00;102002.44;5089714;28;20007;-63
2022/12/06 02:24:33;;;;;;;;;;;;;;;5.11;100.00;102008.53;5080665;28;19916;-63
2022/12/06 02:27:01;;;;;;;;;;;;;;;5.09;100.00;102000.75;5086784;28;19999;-62
2022/12/06 02:29:32;;;;;;;;;;;;;;;5.10;100.00;102002.44;5089582;28;20355;-63
2022/12/06 02:32:14;;;;;;;;;;;;;;;5.10;100.00;102002.44;5091168;28;19950;-63
2022/12/06 02:34:46;;;;;;;;;;;;;;;5.12;100.00;101994.41;5085447;28;20342;-63
2022/12/06 02:37:23;;;;;;;;;;;;;;;5.11;100.00;101993.59;5077889;28;20422;-63
2022/12/06 02:39:56;;;;;;;;;;;;;;;5.12;100.00;101992.63;5084296;28;19922;-63
2022/12/06 02:42:23;;;;;;;;;;;;;;;5.14;100.00;101993.38;5087924;28;19935;-64
2022/12/06 02:44:51;;;;;;;;;;;;;;;5.14;100.00;101990.72;5088473;28;19928;-63
2022/12/06 02:47:19;;;;;;;;;;;;;;;5.14;100.00;101988.09;5086455;28;19912;-63
2022/12/06 02:49:48;;;;;;;;;;;;;;;5.13;100.00;101986.41;5083148;28;19924;-63
2022/12/06 02:52:14;;;;;;;;;;;;;;;5.13;100.00;101983.78;5091503;28;19923;-63
2022/12/06 02:54:41;;;;;;;;;;;;;;;5.13;100.00;101981.16;5082851;28;19912;-63
2022/12/06 02:57:06;;;;;;;;;;;;;;;5.14;100.00;101988.09;5086887;28;19920;-63
2022/12/06 02:59:31;;;;;;;;;;;;;;;5.14;100.00;101979.34;5085046;28;19926;-63
2022/12/06 03:01:58;;;;;;;;;;;;;;;5.15;100.00;101979.25;5091077;28;20021;-63
2022/12/06 03:04:32;;;;;;;;;;;;;;;5.15;100.00;101983.66;5086544;28;19916;-63
2022/12/06 03:07:12;;;;;;;;;;;;;;;5.14;100.00;101988.09;5086678;28;20471;-63
2022/12/06 03:09:43;;;;;;;;;;;;;;;5.14;100.00;101982.84;5087779;28;19958;-64
2022/12/06 03:12:29;;;;;;;;;;;;;;;5.12;100.00;101986.53;5086777;28;19919;-63
2022/12/06 03:14:54;;;;;;;;;;;;;;;5.13;100.00;101990.84;5085397;28;20280;-63
2022/12/06 03:17:31;;;;;;;;;;;;;;;5.11;100.00;101985.69;5083863;28;20371;-63
2022/12/06 03:20:00;;;;;;;;;;;;;;;5.11;100.00;101987.47;5088898;28;19912;-64
2022/12/06 03:22:36;;;;;;;;;;;;;;;5.11;100.00;101990.94;5084995;28;19924;-63
2022/12/06 03:25:03;;;;;;;;;;;;;;;5.12;100.00;101986.53;5082155;28;19974;-62
2022/12/06 03:27:30;;;;;;;;;;;;;;;5.12;100.00;101992.63;5090364;28;19916;-63
2022/12/06 03:29:57;;;;;;;;;;;;;;;5.12;100.00;101997.91;5085205;28;19922;-62
2022/12/06 03:32:24;;;;;;;;;;;;;;;5.13;100.00;101996.09;5083386;28;20445;-63
2022/12/06 03:34:52;;;;;;;;;;;;;;;5.14;100.00;101993.38;5089187;28;19969;-63
2022/12/06 03:37:21;;;;;;;;;;;;;;;5.14;100.00;101995.16;5081371;28;19916;-63
2022/12/06 03:40:16;;;;;;;;;;;;;;;5.14;100.00;101990.72;5086702;28;19912;-63
2022/12/06 03:42:41;;;;;;;;;;;;;;;5.14;100.00;101993.38;5079186;28;20387;-63
2022/12/06 03:45:09;;;;;;;;;;;;;;;5.14;100.00;101987.25;5082098;28;19928;-63
2022/12/06 03:47:53;;;;;;;;;;;;;;;5.13;100.00;101990.84;5081294;28;19917;-63
2022/12/06 03:50:21;;;;;;;;;;;;;;;5.12;100.00;101991.78;5083985;28;20007;-63
2022/12/06 03:52:48;;;;;;;;;;;;;;;5.10;100.00;101989.25;5079831;28;19916;-63
2022/12/06 03:55:14;;;;;;;;;;;;;;;5.09;100.00;101984.94;5081338;28;20441;-64
2022/12/06 03:57:39;;;;;;;;;;;;;;;5.08;100.00;101988.53;5090467;28;19920;-63
2022/12/06 04:00:04;;;;;;;;;;;;;;;5.08;100.00;101990.31;5089879;28;19912;-63
2022/12/06 04:02:30;;;;;;;;;;;;;;;5.07;100.00;101996.53;5086999;28;20368;-63
2022/12/06 04:04:55;;;;;;;;;;;;;;;5.06;100.00;101990.44;5088492;28;20367;-63
2022/12/06 04:07:21;;;;;;;;;;;;;;;5.06;100.00;101993.06;5080261;28;19916;-63
2022/12/06 04:10:01;;;;;;;;;;;;;;;5.05;100.00;101994.00;5083253;28;19919;-62
2022/12/06 04:15:11;;;;;;;;;;;;;;;5.04;100.00;101986.22;5090012;28;19920;-63
2022/12/06 04:20:21;;;;;;;;;;;;;;;5.03;100.00;101987.19;5086633;28;19918;-63
2022/12/06 04:23:04;;;;;;;;;;;;;;;5.02;100.00;101980.22;5089364;28;19911;-63
2022/12/06 04:25:34;;;;;;;;;;;;;;;5.01;100.00;101984.66;5085554;28;20010;-63
2022/12/06 04:38:55;;;;;;;;;;;;;;;5.00;100.00;101992.66;5085725;28;19950;-63
2022/12/06 04:44:04;;;;;;;;;;;;;;;5.02;100.00;101988.13;5084739;28;19927;-63
2022/12/06 04:46:29;;;;;;;;;;;;;;;5.02;100.00;101990.75;5091044;28;19920;-63
2022/12/06 04:48:55;;;;;;;;;;;;;;;5.02;100.00;101994.22;5096116;28;19916;-63
2022/12/06 04:51:20;;;;;;;;;;;;;;;5.02;100.00;101988.97;5090559;28;19904;-63
2022/12/06 04:53:45;;;;;;;;;;;;;;;5.02;100.00;101991.59;5088406;28;19928;-63
2022/12/06 04:56:11;;;;;;;;;;;;;;;5.03;100.00;101987.19;5092226;28;20354;-63
2022/12/06 04:58:36;;;;;;;;;;;;;;;5.04;100.00;101981.81;5085880;28;20004;-63
2022/12/06 05:01:02;;;;;;;;;;;;;;;5.02;100.00;101982.84;5081095;28;20102;-63
2022/12/06 05:03:27;;;;;;;;;;;;;;;5.03;100.00;101981.91;5084740;28;19977;-63
2022/12/06 05:05:52;;;;;;;;;;;;;;;5.03;100.00;101979.28;5092041;28;19921;-63
2022/12/06 05:08:17;;;;;;;;;;;;;;;5.02;100.00;101981.06;5088423;28;19956;-62
2022/12/06 05:10:46;;;;;;;;;;;;;;;5.01;100.00;101982.00;5092752;28;20361;-63
2022/12/06 05:13:11;;;;;;;;;;;;;;;4.99;100.00;101973.38;5077410;28;19939;-63
2022/12/06 05:15:37;;;;;;;;;;;;;;;4.97;100.00;101984.03;5098643;28;20367;-63
2022/12/06 05:18:02;;;;;;;;;;;;;;;4.96;100.00;101981.50;5086062;28;19962;-64
2022/12/06 05:20:27;;;;;;;;;;;;;;;4.97;100.00;101976.13;5087454;28;19966;-63
2022/12/06 05:22:52;;;;;;;;;;;;;;;4.96;100.00;101974.44;5089365;28;19916;-63
2022/12/06 05:25:17;;;;;;;;;;;;;;;4.97;100.00;101981.38;5088522;28;20557;-63
2022/12/06 05:27:43;;;;;;;;;;;;;;;4.95;100.00;101979.81;5083049;28;19919;-63
2022/12/06 05:30:09;;;;;;;;;;;;;;;4.93;100.00;101977.28;5081194;28;19912;-63
2022/12/06 05:32:36;;;;;;;;;;;;;;;4.93;100.00;101981.72;5088398;28;19912;-63
2022/12/06 05:35:01;;;;;;;;;;;;;;;4.91;100.00;101976.53;5094875;28;19915;-63
2022/12/06 05:37:26;;;;;;;;;;;;;;;4.92;100.00;101977.41;5087819;28;19920;-63
2022/12/06 05:39:51;;;;;;;;;;;;;;;4.92;100.00;101978.25;5087404;28;20306;-63
2022/12/06 05:42:17;;;;;;;;;;;;;;;4.90;100.00;101977.47;5087192;28;19912;-63
2022/12/06 05:44:42;;;;;;;;;;;;;;;4.89;100.00;101980.22;5096482;28;20350;-63
2022/12/06 05:47:07;;;;;;;;;;;;;;;4.87;100.00;101980.31;5092307;28;19969;-63
2022/12/06 05:49:32;;;;;;;;;;;;;;;4.86;100.00;101981.28;5087112;28;19935;-63
2022/12/06 05:51:58;;;;;;;;;;;;;;;4.86;100.00;101977.81;5080644;28;19958;-63
2022/12/06 05:54:23;;;;;;;;;;;;;;;4.86;100.00;101975.16;5093470;28;19965;-63
2022/12/06 05:56:48;;;;;;;;;;;;;;;4.86;100.00;101981.28;5084890;28;19912;-64
2022/12/06 05:59:14;;;;;;;;;;;;;;;4.86;100.00;101983.91;5082787;28;19965;-63
2022/12/06 06:01:39;;;;;;;;;;;;;;;4.85;100.00;101976.13;5078797;28;20007;-65
2022/12/06 06:04:04;;;;;;;;;;;;;;;4.85;100.00;101984.84;5080846;28;20007;-63
2022/12/06 06:06:29;;;;;;;;;;;;;;;4.85;100.00;101984.84;5088810;28;19951;-63
2022/12/06 06:08:54;;;;;;;;;;;;;;;4.85;100.00;101987.47;5086154;28;20011;-63
2022/12/06 06:11:20;;;;;;;;;;;;;;;4.85;99.96;101984.00;5080839;28;19934;-63
2022/12/06 06:13:45;;;;;;;;;;;;;;;4.84;99.87;101985.81;5087553;28;19951;-63
2022/12/06 06:16:10;;;;;;;;;;;;;;;4.84;100.00;101991.06;5079906;28;20011;-63
2022/12/06 06:18:35;;;;;;;;;;;;;;;4.83;100.00;101988.53;5080551;28;19942;-63
2022/12/06 06:21:00;;;;;;;;;;;;;;;4.80;100.00;101986.13;5086102;28;19947;-63
2022/12/06 06:23:26;;;;;;;;;;;;;;;4.77;99.80;101984.53;5085637;28;19920;-63
2022/12/06 06:25:52;;;;;;;;;;;;;;;4.75;100.00;101986.44;5081712;28;19924;-63
2022/12/06 06:28:17;;;;;;;;;;;;;;;4.74;99.79;101990.03;5081911;28;19939;-64
2022/12/06 06:30:43;;;;;;;;;;;;;;;4.72;100.00;101985.81;5082428;28;19981;-63
2022/12/06 06:33:08;;;;;;;;;;;;;;;4.70;99.85;101988.53;5080834;28;20265;-63
2022/12/06 06:35:34;;;;;;;;;;;;;;;4.70;100.00;101985.06;5087052;28;20397;-63
2022/12/06 06:37:59;;;;;;;;;;;;;;;4.67;100.00;101991.38;5084629;28;19923;-63
2022/12/06 06:40:24;;;;;;;;;;;;;;;4.66;99.92;101987.91;5086029;28;19920;-63
2022/12/06 06:42:49;;;;;;;;;;;;;;;4.63;99.73;101982.88;5089032;28;20299;-64
2022/12/06 06:45:15;;;;;;;;;;;;;;;4.61;99.94;101982.09;5087532;28;19924;-63
2022/12/06 06:47:40;;;;;;;;;;;;;;;4.62;99.94;101982.94;5089726;28;20488;-63
2022/12/06 06:50:06;;;;;;;;;;;;;;;4.62;99.81;101980.31;5088058;28;20384;-63
2022/12/06 06:52:31;;;;;;;;;;;;;;;4.61;99.83;101973.38;5086958;28;19927;-63
2022/12/06 06:54:56;;;;;;;;;;;;;;;4.61;99.78;101976.84;5086910;28;19920;-63
2022/12/06 06:57:22;;;;;;;;;;;;;;;4.61;100.00;101974.22;5088703;28;19924;-64
2022/12/06 06:59:47;;;;;;;;;;;;;;;4.61;99.75;101976.84;5086633;28;19938;-63
2022/12/06 07:02:13;;;;;;;;;;;;;;;4.61;99.87;101978.63;5086283;28;19970;-63
2022/12/06 07:04:38;;;;;;;;;;;;;;;4.60;99.98;101982.22;5086385;28;19963;-65
2022/12/06 07:07:03;;;;;;;;;;;;;;;4.59;99.71;101975.25;5087174;28;19920;-63
2022/12/06 07:09:28;;;;;;;;;;;;;;;4.59;100.00;101983.16;5089926;28;20010;-63
2022/12/06 07:11:54;;;;;;;;;;;;;;;4.57;99.71;101980.63;5080913;28;20544;-64
2022/12/06 07:14:19;;;;;;;;;;;;;;;4.58;99.83;101973.56;5082027;28;19912;-62
2022/12/06 07:16:44;;;;;;;;;;;;;;;4.57;99.95;101974.53;5078035;28;19924;-63
2022/12/06 07:19:09;;;;;;;;;;;;;;;4.57;99.70;101983.25;5083710;28;19923;-63
2022/12/06 07:21:34;;;;;;;;;;;;;;;4.57;99.91;101977.16;5083690;28;19924;-63
2022/12/06 07:24:00;;;;;;;;;;;;;;;4.58;99.78;101984.09;5087350;28;20015;-63
2022/12/06 07:26:26;;;;;;;;;;;;;;;4.58;100.00;101982.31;5086581;28;19928;-64
2022/12/06 07:28:51;;;;;;;;;;;;;;;4.58;99.68;101984.09;5086987;28;19922;-64
2022/12/06 07:31:19;;;;;;;;;;;;;;;4.58;99.79;101974.41;5076169;28;20145;-64
2022/12/06 07:33:44;;;;;;;;;;;;;;;4.58;99.76;101977.06;5084751;28;20724;-63
2022/12/06 07:36:10;;;;;;;;;;;;;;;4.58;99.81;101984.94;5078131;28;19920;-63
2022/12/06 07:38:35;;;;;;;;;;;;;;;4.58;99.91;101984.09;5088791;28;20015;-63
2022/12/06 07:41:01;;;;;;;;;;;;;;;4.58;99.65;101978.84;5085850;28;20061;-63
2022/12/06 07:46:10;;;;;;;;;;;;;;;4.56;99.94;101984.22;5081128;28;19931;-63
2022/12/06 07:48:35;;;;;;;;;;;;;;;4.56;99.74;101988.63;5093644;28;19916;-63
2022/12/06 07:51:03;;;;;;;;;;;;;;;4.54;99.90;101983.47;5085760;28;20400;-63
2022/12/06 07:53:28;;;;;;;;;;;;;;;4.56;99.73;101988.63;5084779;28;20265;-62
2022/12/06 07:55:53;;;;;;;;;;;;;;;4.57;99.83;101987.69;5088256;28;19919;-63
2022/12/06 07:58:18;;;;;;;;;;;;;;;4.58;99.78;101992.84;5081043;28;19928;-63
2022/12/06 08:00:43;;;;;;;;;;;;;;;4.60;99.78;101996.19;5081303;28;20551;-63
2022/12/06 08:03:09;;;;;;;;;;;;;;;4.62;99.94;101994.31;5084911;28;19916;-63
2022/12/06 08:05:34;;;;;;;;;;;;;;;4.64;99.81;101995.06;5080356;28;19927;-63
2022/12/06 08:07:59;;;;;;;;;;;;;;;4.67;99.85;101996.66;5080886;28;19939;-64
2022/12/06 08:10:25;;;;;;;;;;;;;;;4.69;99.70;101999.19;5079819;28;20414;-63
2022/12/06 08:12:50;;;;;;;;;;;;;;;4.70;99.71;101992.97;5082457;28;19916;-63
2022/12/06 08:15:15;;;;;;;;;;;;;;;4.72;99.78;101994.53;5078174;28;19935;-63
2022/12/06 08:17:40;;;;;;;;;;;;;;;4.72;99.61;101989.28;5081340;28;19939;-63
2022/12/06 08:20:07;;;;;;;;;;;;;;;4.71;99.85;101994.66;5079667;28;20368;-63
2022/12/06 08:22:32;;;;;;;;;;;;;;;4.69;99.91;101991.28;5085588;28;20053;-63
2022/12/06 08:24:58;;;;;;;;;;;;;;;4.66;99.95;101992.34;5081215;28;19999;-63
2022/12/06 08:27:23;;;;;;;;;;;;;;;4.58;99.80;101992.84;5088429;28;20000;-63
2022/12/06 08:29:48;;;;;;;;;;;;;;;4.51;99.75;101993.34;5087920;28;19912;-63
2022/12/06 08:32:13;;;;;;;;;;;;;;;4.43;99.68;102003.56;5093888;28;19972;-62
2022/12/06 08:34:38;;;;;;;;;;;;;;;4.33;99.27;102000.69;5089029;28;20343;-63
2022/12/06 08:37:03;;;;;;;;;;;;;;;4.28;99.59;102000.97;5089448;28;19919;-62
2022/12/06 08:39:29;;;;;;;;;;;;;;;4.24;99.24;102002.13;5084565;28;19955;-62
2022/12/06 08:41:54;;;;;;;;;;;;;;;4.19;99.31;102000.75;5089692;28;19919;-63
2022/12/06 08:44:20;;;;;;;;;;;;;;;4.19;99.40;102016.53;5084156;28;19912;-63
2022/12/06 08:46:45;;;;;;;;;;;;;;;4.22;99.23;102013.69;5084851;28;19916;-63
2022/12/06 08:49:11;;;;;;;;;;;;;;;4.24;99.48;102011.81;5088249;28;19912;-63
2022/12/06 08:51:36;;;;;;;;;;;;;;;4.29;99.76;102021.06;5092436;28;20325;-62
2022/12/06 08:54:02;;;;;;;;;;;;;;;4.33;99.67;102017.28;5079015;28;20360;-63
2022/12/06 08:56:28;;;;;;;;;;;;;;;4.45;99.62;102015.66;5087408;28;19962;-63
2022/12/06 08:58:53;;;;;;;;;;;;;;;4.54;99.79;102020.28;5096237;28;19916;-63
2022/12/06 09:01:21;;;;;;;;;;;;;;;4.61;100.00;102012.81;5087768;28;19919;-63
2022/12/06 09:03:46;;;;;;;;;;;;;;;4.66;99.99;102018.66;5086824;28;19942;-63
2022/12/06 09:06:12;;;;;;;;;;;;;;;4.72;100.00;102018.22;5089721;28;19920;-63
2022/12/06 09:08:37;;;;;;;;;;;;;;;4.80;100.00;102022.97;5080536;28;19931;-63
2022/12/06 09:11:03;;;;;;;;;;;;;;;4.82;100.00;102021.91;5082197;28;19920;-63
2022/12/06 09:13:28;;;;;;;;;;;;;;;4.88;100.00;102018.00;5085606;28;19913;-63
2022/12/06 09:15:53;;;;;;;;;;;;;;;4.94;100.00;102021.09;5079609;28;19919;-64
2022/12/06 09:18:19;;;;;;;;;;;;;;;4.96;100.00;102028.88;5083707;28;19912;-63
2022/12/06 09:20:44;;;;;;;;;;;;;;;4.95;100.00;102028.03;5084177;28;20307;-63
2022/12/06 09:23:09;;;;;;;;;;;;;;;4.96;99.83;102020.97;5081086;28;21697;-63
2022/12/06 09:25:34;;;;;;;;;;;;;;;5.00;99.92;102022.44;5082692;28;19981;-63
2022/12/06 09:27:59;;;;;;;;;;;;;;;5.05;99.85;102024.75;5082507;28;20125;-63
2022/12/06 09:30:25;;;;;;;;;;;;;;;5.04;100.00;102018.66;5075398;28;20038;-63
2022/12/06 09:32:52;;;;;;;;;;;;;;;5.06;100.00;102026.44;5082691;28;19916;-63
2022/12/06 09:35:17;;;;;;;;;;;;;;;5.08;99.77;102025.38;5083993;28;19972;-63
2022/12/06 09:37:42;;;;;;;;;;;;;;;5.13;99.84;102027.69;5089896;28;20290;-63
2022/12/06 09:40:11;;;;;;;;;;;;;;;5.17;99.99;102027.38;5085623;28;20325;-63
2022/12/06 09:42:42;;;;;;;;;;;;;;;5.22;99.92;102034.97;5089575;28;19916;-63
2022/12/06 09:45:28;;;;;;;;;;;;;;;5.23;99.51;102029.63;5086362;28;20398;-64
2022/12/06 09:48:07;;;;;;;;;;;;;;;5.25;99.85;102032.13;5084061;28;20007;-63
2022/12/06 09:50:44;;;;;;;;;;;;;;;5.26;99.84;102028.56;5079544;28;19916;-63
2022/12/06 09:53:09;;;;;;;;;;;;;;;5.29;99.77;102028.34;5080012;28;20405;-62
2022/12/06 09:55:53;;;;;;;;;;;;;;;5.29;99.53;102021.28;5080405;28;20821;-63
2022/12/06 09:58:39;;;;;;;;;;;;;;;5.28;99.24;102024.84;5082058;28;19965;-63
2022/12/06 10:01:10;;;;;;;;;;;;;;;5.27;99.18;102022.34;5078252;28;19924;-63
2022/12/06 10:03:38;;;;;;;;;;;;;;;5.28;99.06;102031.91;5084572;28;19920;-64
2022/12/06 10:06:07;;;;;;;;;;;;;;;5.23;99.31;102019.06;5086340;28;19928;-63
2022/12/06 10:08:32;;;;;;;;;;;;;;;5.26;99.29;102018.84;5089981;28;19955;-63
2022/12/06 10:11:06;;;;;;;;;;;;;;;5.24;98.76;102018.13;5087885;28;19963;-63
2022/12/06 10:13:43;;;;;;;;;;;;;;;5.24;98.57;102017.28;5087782;28;19916;-63
2022/12/06 10:16:27;;;;;;;;;;;;;;;5.22;98.55;102017.41;5085700;28;19923;-63
2022/12/06 10:19:10;;;;;;;;;;;;;;;5.24;98.43;102019.91;5084581;28;20269;-63
2022/12/06 10:21:35;;;;;;;;;;;;;;;5.24;98.64;102014.66;5089345;28;20302;-63
2022/12/06 10:24:10;;;;;;;;;;;;;;;5.25;98.62;102016.34;5091115;28;20383;-62
2022/12/06 10:26:41;;;;;;;;;;;;;;;5.26;98.35;102018.03;5087249;28;19924;-63
2022/12/06 10:29:12;;;;;;;;;;;;;;;5.26;98.32;102016.22;5088570;28;19932;-63
2022/12/06 10:31:53;;;;;;;;;;;;;;;5.28;98.51;102014.31;5079821;28;20065;-63
2022/12/06 10:34:20;;;;;;;;;;;;;;;5.29;98.18;102013.38;5079695;28;19947;-63
2022/12/06 10:37:02;;;;;;;;;;;;;;;5.32;98.11;102016.75;5085080;28;19969;-63
2022/12/06 10:39:28;;;;;;;;;;;;;;;5.33;98.28;102024.53;5081938;28;20276;-63
2022/12/06 10:41:53;;;;;;;;;;;;;;;5.36;98.31;102023.47;5089352;28;19927;-63
2022/12/06 10:44:23;;;;;;;;;;;;;;;5.40;98.35;102012.59;5088998;28;20003;-63
2022/12/06 10:47:05;;;;;;;;;;;;;;;5.44;98.30;102013.22;5093105;28;19962;-64
2022/12/06 10:49:42;;;;;;;;;;;;;;;5.48;98.18;102017.31;5095497;28;19954;-63
2022/12/06 10:52:15;;;;;;;;;;;;;;;5.49;98.46;102011.97;5091204;28;19912;-64
2022/12/06 10:54:42;;;;;;;;;;;;;;;5.52;98.41;102003.84;5086078;28;19967;-63
2022/12/06 10:57:17;;;;;;;;;;;;;;;5.55;98.18;102010.69;5091315;28;19999;-63
2022/12/06 10:59:50;;;;;;;;;;;;;;;5.61;97.94;102004.97;5090671;28;19919;-63
2022/12/06 11:02:18;;;;;;;;;;;;;;;5.65;98.14;102002.97;5088829;28;19912;-63
2022/12/06 11:04:45;;;;;;;;;;;;;;;5.71;97.85;102003.34;5090749;28;19942;-63
2022/12/06 11:07:30;;;;;;;;;;;;;;;5.76;97.77;102009.13;5089557;28;19926;-63
2022/12/06 11:09:56;;;;;;;;;;;;;;;5.85;97.67;102005.00;5086458;28;19919;-63
2022/12/06 11:12:26;;;;;;;;;;;;;;;5.92;97.21;101994.88;5085879;28;19911;-64
2022/12/06 11:14:53;;;;;;;;;;;;;;;5.94;96.52;102009.63;5087928;28;20276;-63
2022/12/06 11:17:22;;;;;;;;;;;;;;;5.96;96.18;102009.53;5087493;28;19917;-63
2022/12/06 11:20:09;;;;;;;;;;;;;;;6.00;96.17;102006.53;5082579;28;19923;-63
2022/12/06 11:22:40;;;;;;;;;;;;;;;6.08;95.79;102006.00;5084451;28;20357;-63
2022/12/06 11:25:21;;;;;;;;;;;;;;;6.17;96.02;102000.88;5087849;28;20410;-64
2022/12/06 11:27:49;;;;;;;;;;;;;;;6.31;95.69;101999.84;5082402;28;19963;-63
2022/12/06 11:30:16;;;;;;;;;;;;;;;6.36;95.68;102010.94;5079889;28;20376;-63
2022/12/06 11:32:42;;;;;;;;;;;;;;;6.43;95.23;101996.31;5087525;28;19916;-63
2022/12/06 11:35:12;;;;;;;;;;;;;;;6.42;94.54;102005.19;5085337;28;19942;-63
2022/12/06 11:37:38;;;;;;;;;;;;;;;6.42;94.77;101993.78;5084278;28;19926;-64
2022/12/06 11:40:23;;;;;;;;;;;;;;;6.46;94.45;101995.22;5084303;28;19924;-63
2022/12/06 11:42:49;;;;;;;;;;;;;;;6.50;93.89;101992.25;5086429;28;19912;-63
2022/12/06 11:45:33;;;;;;;;;;;;;;;6.57;93.63;101999.69;5079729;28;19923;-63
2022/12/06 11:48:00;;;;;;;;;;;;;;;6.70;93.39;101996.03;5087088;28;19923;-63
2022/12/06 11:50:28;;;;;;;;;;;;;;;6.76;92.87;101994.69;5080168;28;19958;-64
2022/12/06 11:52:56;;;;;;;;;;;;;;;6.80;92.97;101985.59;5086596;28;20007;-63
2022/12/06 11:55:26;;;;;;;;;;;;;;;6.85;92.89;101996.63;5087904;28;19920;-63
2022/12/06 11:57:57;;;;;;;;;;;;;;;6.84;92.29;101984.38;5083481;28;19924;-64
2022/12/06 12:00:23;;;;;;;;;;;;;;;6.81;92.28;101982.00;5080765;28;19949;-63
2022/12/06 12:02:50;;;;;;;;;;;;;;;6.73;91.98;101973.81;5081069;28;19920;-63
2022/12/06 12:05:15;;;;;;;;;;;;;;;6.68;91.60;101968.06;5089472;28;19930;-63
2022/12/06 12:07:42;;;;;;;;;;;;;;;6.68;91.85;101963.63;5089223;28;19920;-64
2022/12/06 12:10:28;;;;;;;;;;;;;;;6.72;91.64;101964.22;5086690;28;20363;-63
2022/12/06 12:15:46;;;;;;;;;;;;;;;6.86;91.22;101960.50;5086366;28;19962;-67
2022/12/06 12:18:20;;;;;;;;;;;;;;;6.96;91.22;101961.50;5079626;28;19931;-66
2022/12/06 12:20:46;;;;;;;;;;;;;;;7.05;90.46;101958.97;5077806;28;19965;-64
2022/12/06 12:23:20;;;;;;;;;;;;;;;7.11;89.84;101955.00;5084031;28;19933;-65
2022/12/06 12:26:05;;;;;;;;;;;;;;;7.20;89.54;101948.13;5089610;28;19928;-65
2022/12/06 12:28:32;;;;;;;;;;;;;;;7.33;89.19;101947.06;5055451;28;19991;-63
2022/12/06 12:30:58;;;;;;;;;;;;;;;7.48;88.29;101942.31;5084516;28;19925;-65
2022/12/06 12:33:25;;;;;;;;;;;;;;;7.62;87.49;101942.06;5089929;28;19912;-65
2022/12/06 12:35:55;;;;;;;;;;;;;;;7.78;88.30;101937.19;5088299;28;19942;-64
2022/12/06 12:38:31;;;;;;;;;;;;;;;8.00;88.05;101938.09;5091717;28;19920;-64
2022/12/06 12:41:02;;;;;;;;;;;;;;;8.21;87.17;101938.13;5083386;28;19916;-64
2022/12/06 12:43:31;;;;;;;;;;;;;;;8.41;86.84;101933.84;5091720;28;19920;-64
2022/12/06 12:46:13;;;;;;;;;;;;;;;8.57;85.71;101928.91;5087345;28;20582;-65
2022/12/06 12:48:43;;;;;;;;;;;;;;;8.68;85.15;101934.97;5086480;28;19913;-64
2022/12/06 12:51:27;;;;;;;;;;;;;;;8.64;84.73;101925.59;5078226;28;19912;-65
2022/12/06 12:53:54;;;;;;;;;;;;;;;8.37;82.74;101927.94;5088075;28;20006;-64
2022/12/06 12:56:20;;;;;;;;;;;;;;;8.13;82.36;101927.34;5088565;28;20828;-65
2022/12/06 12:58:47;;;;;;;;;;;;;;;8.02;82.57;101928.22;5089293;28;19956;-64
2022/12/06 13:01:15;;;;;;;;;;;;;;;7.94;82.53;101920.09;5086939;28;19916;-64
2022/12/06 13:03:42;;;;;;;;;;;;;;;7.88;82.62;101923.25;5085586;28;19920;-64
2022/12/06 13:06:18;;;;;;;;;;;;;;;7.83;83.25;101917.50;5088321;28;20357;-64
2022/12/06 13:08:44;;;;;;;;;;;;;;;7.79;83.17;101922.16;5089073;28;19920;-65